Time;durP1;ratioP1;P1;durP2;ratioP2;P2;SDS_P1;SDS_P2;PMS_P1;PMS_P2;Temp;Humidity;BMP_temperature;BMP_pressure;BME280_temperature;BME280_humidity;BME280_pressure;Samples;Min_cycle;Max_cycle;Signal;HPM_P1;HPM_P2
2023/04/23 00:02:12;;;;;;;53.90;23.45;;;8.10;99.90;;;;;;5082104;28;20487;-81
2023/04/23 00:04:38;;;;;;;48.75;22.23;;;8.10;99.90;;;;;;5051962;28;20042;-81
2023/04/23 00:07:04;;;;;;;29.02;22.67;;;8.10;99.90;;;;;;5046144;28;20056;-81
2023/04/23 00:09:33;;;;;;;31.73;22.90;;;8.10;99.90;;;;;;5046502;28;20043;-81
2023/04/23 00:12:00;;;;;;;46.25;26.52;;;8.10;99.90;;;;;;5054239;28;20773;-80
2023/04/23 00:14:26;;;;;;;44.10;25.13;;;8.10;99.90;;;;;;5049744;28;20069;-81
2023/04/23 00:16:52;;;;;;;49.95;23.80;;;8.00;99.90;;;;;;5032935;28;20041;-80
2023/04/23 00:19:19;;;;;;;44.78;25.17;;;8.00;99.90;;;;;;5055538;28;20064;-81
2023/04/23 00:21:45;;;;;;;32.53;24.75;;;8.10;99.90;;;;;;5048159;28;20108;-80
2023/04/23 00:24:10;;;;;;;34.72;24.98;;;8.00;99.90;;;;;;5048890;28;20037;-80
2023/04/23 00:26:36;;;;;;;37.28;26.35;;;8.00;99.90;;;;;;5051196;28;20045;-81
2023/04/23 00:29:01;;;;;;;33.25;25.10;;;8.00;99.90;;;;;;5050361;28;20041;-80
2023/04/23 00:31:27;;;;;;;33.67;27.25;;;8.00;99.90;;;;;;5044901;28;20043;-80
2023/04/23 00:33:53;;;;;;;30.95;24.77;;;7.90;99.90;;;;;;5052022;28;20135;-81
2023/04/23 00:36:18;;;;;;;30.20;25.35;;;8.00;99.90;;;;;;5044519;28;20041;-80
2023/04/23 00:38:44;;;;;;;35.20;25.45;;;7.90;99.90;;;;;;5045972;28;20036;-80
2023/04/23 00:41:10;;;;;;;36.58;27.02;;;7.90;99.90;;;;;;5044820;28;20033;-80
2023/04/23 00:43:36;;;;;;;33.70;27.67;;;7.90;99.90;;;;;;5045557;28;20071;-80
2023/04/23 00:46:02;;;;;;;36.72;27.27;;;7.90;99.90;;;;;;5046785;28;20073;-81
2023/04/23 00:48:28;;;;;;;33.33;26.95;;;7.90;99.90;;;;;;5043868;28;20075;-80
2023/04/23 00:51:04;;;;;;;38.35;27.10;;;7.90;99.90;;;;;;5044965;28;20045;-80
2023/04/23 00:53:30;;;;;;;35.20;27.20;;;7.90;99.90;;;;;;5043895;28;20036;-80
2023/04/23 00:55:56;;;;;;;38.47;29.50;;;7.90;99.90;;;;;;5049027;28;20060;-80
2023/04/23 00:58:22;;;;;;;37.67;28.38;;;7.90;99.90;;;;;;5045497;28;20048;-80
2023/04/23 01:00:50;;;;;;;40.38;29.02;;;7.90;99.90;;;;;;5044539;28;20131;-80
2023/04/23 01:03:17;;;;;;;37.38;28.35;;;7.90;99.90;;;;;;5046323;28;20033;-79
2023/04/23 01:05:43;;;;;;;40.25;29.80;;;7.80;99.90;;;;;;5042949;28;20079;-80
2023/04/23 01:08:13;;;;;;;39.40;29.15;;;7.80;99.90;;;;;;5044230;28;20100;-79
2023/04/23 01:10:39;;;;;;;41.63;30.15;;;7.80;99.90;;;;;;5077432;28;20043;-80
2023/04/23 01:13:05;;;;;;;41.47;31.35;;;7.80;99.90;;;;;;5046128;28;20029;-80
2023/04/23 01:15:31;;;;;;;42.63;31.23;;;7.80;99.90;;;;;;5046219;28;20457;-80
2023/04/23 01:17:57;;;;;;;46.33;32.53;;;7.80;99.90;;;;;;5044685;28;20052;-80
2023/04/23 01:20:23;;;;;;;49.58;32.55;;;7.80;99.90;;;;;;5059189;28;20126;-80
2023/04/23 01:22:48;;;;;;;46.22;32.38;;;7.80;99.90;;;;;;5042035;28;20049;-80
2023/04/23 01:25:14;;;;;;;46.75;33.35;;;7.80;99.90;;;;;;5041908;28;20043;-80
2023/04/23 01:27:40;;;;;;;44.13;32.90;;;7.80;99.90;;;;;;5042255;28;20771;-80
2023/04/23 01:30:07;;;;;;;47.50;34.05;;;7.80;99.90;;;;;;5051113;28;20082;-80
2023/04/23 01:32:33;;;;;;;48.70;33.40;;;7.80;99.90;;;;;;5044471;28;20040;-80
2023/04/23 01:34:59;;;;;;;56.28;35.58;;;7.80;99.90;;;;;;5042558;28;20107;-79
2023/04/23 01:37:26;;;;;;;53.85;36.92;;;7.80;99.90;;;;;;5042063;28;20476;-79
2023/04/23 01:39:52;;;;;;;58.78;38.90;;;7.70;99.90;;;;;;5048706;28;20055;-80
2023/04/23 01:42:17;;;;;;;63.30;41.28;;;7.80;99.90;;;;;;5045193;28;20053;-80
2023/04/23 01:44:43;;;;;;;63.60;42.35;;;7.80;99.90;;;;;;5043326;28;20053;-80
2023/04/23 01:47:10;;;;;;;71.40;44.92;;;7.80;99.90;;;;;;5078116;28;20040;-80
2023/04/23 01:49:35;;;;;;;76.85;46.38;;;7.80;99.90;;;;;;5046769;28;20094;-80
2023/04/23 01:52:01;;;;;;;78.03;46.85;;;7.80;99.90;;;;;;5047047;28;20049;-79
2023/04/23 01:54:26;;;;;;;82.60;51.15;;;7.80;99.90;;;;;;5043364;28;20055;-80
2023/04/23 01:56:53;;;;;;;82.85;48.63;;;7.80;99.90;;;;;;5045558;28;20053;-79
2023/04/23 01:59:21;;;;;;;85.50;50.20;;;7.80;99.90;;;;;;5042568;28;20072;-80
2023/04/23 02:01:46;;;;;;;81.63;51.88;;;7.80;99.90;;;;;;5026840;28;20191;-80
2023/04/23 02:04:13;;;;;;;88.93;54.47;;;7.80;99.90;;;;;;5043982;28;20131;-80
2023/04/23 02:06:40;;;;;;;83.63;50.72;;;7.70;99.90;;;;;;5044630;28;20046;-79
2023/04/23 02:09:06;;;;;;;95.90;55.10;;;7.80;99.90;;;;;;5052626;28;20036;-80
2023/04/23 02:11:32;;;;;;;88.25;54.05;;;7.80;99.90;;;;;;5044387;28;20033;-80
2023/04/23 02:13:58;;;;;;;89.80;53.70;;;7.80;99.90;;;;;;5043488;28;20041;-80
2023/04/23 02:16:25;;;;;;;89.97;54.45;;;7.80;99.90;;;;;;5043148;28;20042;-80
2023/04/23 02:18:51;;;;;;;92.15;54.65;;;7.80;99.90;;;;;;5044113;28;20049;-80
2023/04/23 02:21:16;;;;;;;83.53;52.33;;;7.70;99.90;;;;;;5043215;28;20067;-80
2023/04/23 02:23:42;;;;;;;88.97;55.72;;;7.70;99.90;;;;;;5045128;28;20095;-80
2023/04/23 02:26:07;;;;;;;88.53;54.97;;;7.70;99.90;;;;;;5074013;28;21106;-80
2023/04/23 02:28:33;;;;;;;87.47;52.33;;;7.60;99.90;;;;;;5043627;28;20034;-80
2023/04/23 02:30:58;;;;;;;94.70;55.90;;;7.70;99.90;;;;;;5044258;28;20045;-80
2023/04/23 02:33:24;;;;;;;87.18;54.45;;;7.60;99.90;;;;;;5043806;28;20112;-80
2023/04/23 02:35:50;;;;;;;99.30;59.47;;;7.60;99.90;;;;;;5041767;28;20045;-79
2023/04/23 02:38:15;;;;;;;101.20;57.55;;;7.60;99.90;;;;;;5071530;28;20518;-80
2023/04/23 02:40:42;;;;;;;90.32;56.05;;;7.60;99.90;;;;;;5048315;28;20053;-80
2023/04/23 02:43:08;;;;;;;92.10;54.97;;;7.60;99.90;;;;;;5045189;28;20052;-80
2023/04/23 02:45:33;;;;;;;88.80;56.08;;;7.60;99.90;;;;;;5045185;28;20041;-80
2023/04/23 02:47:59;;;;;;;96.40;59.10;;;7.60;99.90;;;;;;5043258;28;20065;-79
2023/04/23 02:50:25;;;;;;;94.88;58.03;;;7.50;99.90;;;;;;5043842;28;20511;-80
2023/04/23 02:52:50;;;;;;;87.28;55.55;;;7.60;99.90;;;;;;5048015;28;20053;-80
2023/04/23 02:55:16;;;;;;;91.38;55.63;;;7.50;99.90;;;;;;5042784;28;20033;-79
2023/04/23 02:57:42;;;;;;;83.07;54.10;;;7.50;99.90;;;;;;5060264;28;20098;-80
2023/04/23 03:00:08;;;;;;;102.78;56.53;;;7.50;99.90;;;;;;5042769;28;20644;-80
2023/04/23 03:02:34;;;;;;;87.07;52.58;;;7.50;99.90;;;;;;5075815;28;20388;-80
2023/04/23 03:04:59;;;;;;;79.50;52.90;;;7.50;99.90;;;;;;5046550;28;20048;-79
2023/04/23 03:07:25;;;;;;;79.32;52.05;;;7.50;99.90;;;;;;5047209;28;20036;-80
2023/04/23 03:09:51;;;;;;;78.25;50.97;;;7.50;99.90;;;;;;5047197;28;20065;-80
2023/04/23 03:12:17;;;;;;;89.72;57.15;;;7.40;99.90;;;;;;5044399;28;20077;-80
2023/04/23 03:14:43;;;;;;;96.28;60.47;;;7.40;99.90;;;;;;5046168;28;20044;-80
2023/04/23 03:17:08;;;;;;;91.78;58.35;;;7.40;99.90;;;;;;5047157;28;20048;-80
2023/04/23 03:19:34;;;;;;;85.82;53.88;;;7.40;99.90;;;;;;5045556;28;20434;-79
2023/04/23 03:22:02;;;;;;;131.30;59.88;;;7.40;99.90;;;;;;5048124;28;20053;-80
2023/04/23 03:24:30;;;;;;;89.90;54.22;;;7.40;99.90;;;;;;5048776;28;20045;-80
2023/04/23 03:26:56;;;;;;;82.30;55.10;;;7.30;99.90;;;;;;5045080;28;20160;-80
2023/04/23 03:29:22;;;;;;;80.97;52.50;;;7.30;99.90;;;;;;5047546;28;20064;-79
2023/04/23 03:31:48;;;;;;;100.50;59.15;;;7.20;99.90;;;;;;5048039;28;20092;-80
2023/04/23 03:34:13;;;;;;;82.68;55.10;;;7.20;99.90;;;;;;5048801;28;20127;-80
2023/04/23 03:36:39;;;;;;;170.85;64.90;;;7.30;99.90;;;;;;5049783;28;20037;-80
2023/04/23 03:39:06;;;;;;;249.02;60.42;;;7.30;99.90;;;;;;5044919;28;20033;-80
2023/04/23 03:41:31;;;;;;;230.25;64.05;;;7.40;99.90;;;;;;5047630;28;20041;-80
2023/04/23 03:43:57;;;;;;;245.35;69.75;;;7.40;99.90;;;;;;5046608;28;20041;-80
2023/04/23 03:46:22;;;;;;;252.27;65.25;;;7.40;99.90;;;;;;5041866;28;20450;-79
2023/04/23 03:48:48;;;;;;;365.13;66.10;;;7.40;99.90;;;;;;5044978;28;20049;-80
2023/04/23 03:51:14;;;;;;;393.73;70.85;;;7.50;99.90;;;;;;5044749;28;20102;-79
2023/04/23 03:53:39;;;;;;;216.82;67.45;;;7.40;99.90;;;;;;5048272;28;20044;-80
2023/04/23 03:56:05;;;;;;;247.40;64.65;;;7.50;99.90;;;;;;5048633;28;20452;-80
2023/04/23 03:58:30;;;;;;;152.73;66.13;;;7.50;99.90;;;;;;5045329;28;20038;-80
2023/04/23 04:00:56;;;;;;;317.80;77.55;;;7.50;99.90;;;;;;5048644;28;20126;-80
2023/04/23 04:03:22;;;;;;;150.98;64.85;;;7.60;99.90;;;;;;5045937;28;20760;-80
2023/04/23 04:05:47;;;;;;;242.13;69.88;;;7.60;99.90;;;;;;5046494;28;20087;-80
2023/04/23 04:08:13;;;;;;;303.42;76.88;;;7.60;99.90;;;;;;5045601;28;20047;-80
2023/04/23 04:10:39;;;;;;;389.42;82.07;;;7.70;99.90;;;;;;5048593;28;20124;-80
2023/04/23 04:13:05;;;;;;;227.45;76.15;;;7.70;99.90;;;;;;5046295;28;20120;-80
2023/04/23 04:15:31;;;;;;;156.95;69.35;;;7.70;99.90;;;;;;5045528;28;20200;-79
2023/04/23 04:17:58;;;;;;;178.52;67.78;;;7.70;99.90;;;;;;5046409;28;20054;-80
2023/04/23 04:20:24;;;;;;;530.75;95.82;;;7.80;99.90;;;;;;5047199;28;20395;-80
2023/04/23 04:22:50;;;;;;;299.98;76.30;;;7.80;99.90;;;;;;5052915;28;20045;-80
2023/04/23 04:25:15;;;;;;;243.20;71.78;;;7.80;99.90;;;;;;5046625;28;20118;-80
2023/04/23 04:27:41;;;;;;;350.95;80.80;;;7.80;99.90;;;;;;5047602;28;20702;-80
2023/04/23 04:30:07;;;;;;;220.80;75.38;;;7.70;99.90;;;;;;5050083;28;20041;-80
2023/04/23 04:32:33;;;;;;;605.65;97.18;;;7.80;99.90;;;;;;5046549;28;20037;-80
2023/04/23 04:34:59;;;;;;;344.08;80.93;;;7.70;99.90;;;;;;5047039;28;20036;-80
2023/04/23 04:37:25;;;;;;;578.80;98.82;;;7.80;99.90;;;;;;5047657;28;20056;-80
2023/04/23 04:39:50;;;;;;;315.00;84.18;;;7.80;99.90;;;;;;5044995;28;20049;-80
2023/04/23 04:42:16;;;;;;;302.38;82.18;;;7.80;99.90;;;;;;5060654;28;20087;-80
2023/04/23 04:44:42;;;;;;;215.93;77.22;;;7.80;99.90;;;;;;5044076;28;20121;-80
2023/04/23 04:47:08;;;;;;;518.20;100.25;;;7.90;99.90;;;;;;5063789;28;20068;-80
2023/04/23 04:49:34;;;;;;;451.27;93.18;;;7.90;99.90;;;;;;5048003;28;20037;-80
2023/04/23 04:52:00;;;;;;;588.70;107.13;;;7.90;99.90;;;;;;5046943;28;20934;-80
2023/04/23 04:54:26;;;;;;;199.63;80.70;;;8.00;99.90;;;;;;5043978;28;20108;-80
2023/04/23 04:56:51;;;;;;;540.22;104.32;;;8.00;99.90;;;;;;5043602;28;20404;-80
2023/04/23 04:59:17;;;;;;;163.07;75.50;;;7.90;99.90;;;;;;5048872;28;20033;-80
2023/04/23 05:01:43;;;;;;;331.55;87.68;;;8.00;99.90;;;;;;5043309;28;20060;-80
2023/04/23 05:04:08;;;;;;;176.93;77.85;;;8.00;99.90;;;;;;5046082;28;20626;-80
2023/04/23 05:06:34;;;;;;;176.07;77.78;;;8.10;99.90;;;;;;5045593;28;20126;-79
2023/04/23 05:09:00;;;;;;;179.80;79.43;;;8.10;99.90;;;;;;5043775;28;20048;-80
2023/04/23 05:11:25;;;;;;;164.52;78.75;;;8.20;99.90;;;;;;5046083;28;20036;-80
2023/04/23 05:13:51;;;;;;;150.85;76.03;;;8.20;99.90;;;;;;5046891;28;20050;-80
2023/04/23 05:16:18;;;;;;;176.43;79.95;;;8.20;99.90;;;;;;5049847;28;20049;-80
2023/04/23 05:18:46;;;;;;;193.07;84.13;;;8.30;99.90;;;;;;5040371;28;20060;-80
2023/04/23 05:21:12;;;;;;;177.63;81.65;;;8.30;99.90;;;;;;5045939;28;20479;-80
2023/04/23 05:23:38;;;;;;;169.63;80.00;;;8.20;99.90;;;;;;5043851;28;20869;-80
2023/04/23 05:26:04;;;;;;;149.23;76.70;;;8.30;99.90;;;;;;5045125;28;20052;-80
2023/04/23 05:28:30;;;;;;;163.98;78.70;;;8.30;99.90;;;;;;5042456;28;20041;-80
2023/04/23 05:30:56;;;;;;;149.85;78.55;;;8.30;99.90;;;;;;5043375;28;20073;-80
2023/04/23 05:33:21;;;;;;;155.50;78.60;;;8.30;99.90;;;;;;5074374;28;20092;-80
2023/04/23 05:35:47;;;;;;;157.07;78.13;;;8.50;99.90;;;;;;5042601;28;20053;-80
2023/04/23 05:38:12;;;;;;;156.98;77.35;;;8.40;99.90;;;;;;5042397;28;20438;-80
2023/04/23 05:40:38;;;;;;;130.00;72.60;;;8.50;99.90;;;;;;5041108;28;20094;-80
2023/04/23 05:43:04;;;;;;;165.60;76.65;;;8.50;99.90;;;;;;5042976;28;20116;-80
2023/04/23 05:45:30;;;;;;;128.48;71.35;;;8.60;99.90;;;;;;5040854;28;20112;-80
2023/04/23 05:47:56;;;;;;;125.40;70.13;;;8.70;99.90;;;;;;5041956;28;20104;-81
2023/04/23 05:50:22;;;;;;;115.00;66.60;;;8.80;99.90;;;;;;5042816;28;20494;-80
2023/04/23 05:52:47;;;;;;;110.57;66.13;;;8.80;99.90;;;;;;5044130;28;20041;-80
2023/04/23 05:55:17;;;;;;;103.35;64.57;;;8.90;99.90;;;;;;5043900;28;20494;-80
2023/04/23 05:57:42;;;;;;;93.03;61.25;;;9.00;99.90;;;;;;5042681;28;20045;-80
2023/04/23 06:00:08;;;;;;;80.60;58.05;;;9.20;99.90;;;;;;5076428;28;20115;-80
2023/04/23 06:02:34;;;;;;;73.15;56.35;;;9.50;99.90;;;;;;5044665;28;20041;-80
2023/04/23 06:05:00;;;;;;;59.05;49.15;;;10.10;99.90;;;;;;5046226;28;20060;-79
2023/04/23 06:07:26;;;;;;;50.70;44.50;;;11.20;99.90;;;;;;5042593;28;20502;-80
2023/04/23 06:09:51;;;;;;;48.72;42.47;;;12.60;99.90;;;;;;5043223;28;20056;-80
2023/04/23 06:12:17;;;;;;;46.58;41.10;;;12.90;99.90;;;;;;5039607;28;20064;-80
2023/04/23 06:14:43;;;;;;;45.38;40.60;;;12.80;99.90;;;;;;5037383;28;21334;-80
2023/04/23 06:17:08;;;;;;;47.25;42.35;;;12.60;99.90;;;;;;5035212;28;20044;-79
2023/04/23 06:19:34;;;;;;;46.10;41.13;;;12.60;99.90;;;;;;5038723;28;20045;-80
2023/04/23 06:21:59;;;;;;;48.92;41.70;;;12.60;99.90;;;;;;5042669;28;20044;-81
2023/04/23 06:24:25;;;;;;;44.38;39.08;;;12.60;99.90;;;;;;5043154;28;20041;-80
2023/04/23 06:26:51;;;;;;;47.17;40.28;;;12.70;99.90;;;;;;5047686;28;20163;-80
2023/04/23 06:29:16;;;;;;;41.92;37.55;;;12.80;99.90;;;;;;5043372;28;20399;-81
2023/04/23 06:31:42;;;;;;;39.63;35.53;;;13.50;99.90;;;;;;5042323;28;20041;-79
2023/04/23 06:34:07;;;;;;;39.38;35.22;;;14.60;99.90;;;;;;5045551;28;20037;-79
2023/04/23 06:36:34;;;;;;;38.97;34.88;;;15.60;99.90;;;;;;5043947;28;20117;-80
2023/04/23 06:38:59;;;;;;;40.50;36.42;;;16.10;99.90;;;;;;5043625;28;20120;-80
2023/04/23 06:41:25;;;;;;;40.08;35.90;;;16.20;99.90;;;;;;5049302;28;20141;-81
2023/04/23 06:43:50;;;;;;;38.67;34.58;;;16.10;99.90;;;;;;5046289;28;20045;-81
2023/04/23 06:46:16;;;;;;;36.67;32.97;;;16.00;99.90;;;;;;5034705;28;20037;-84
2023/04/23 06:48:41;;;;;;;36.38;32.85;;;16.10;99.90;;;;;;5043808;28;20151;-80
2023/04/23 06:51:07;;;;;;;36.35;32.55;;;15.90;99.90;;;;;;5048693;28;20033;-80
2023/04/23 06:53:33;;;;;;;35.70;32.00;;;15.80;99.90;;;;;;5042912;28;20514;-80
2023/04/23 06:55:58;;;;;;;35.63;31.85;;;15.70;99.90;;;;;;5046562;28;20052;-80
2023/04/23 06:58:29;;;;;;;35.78;31.98;;;15.70;99.90;;;;;;5046068;28;20041;-81
2023/04/23 07:00:56;;;;;;;34.65;30.58;;;15.60;99.90;;;;;;5050373;28;20046;-81
2023/04/23 07:03:22;;;;;;;35.05;31.35;;;15.70;99.90;;;;;;5052827;28;20148;-80
2023/04/23 07:05:48;;;;;;;33.78;30.33;;;15.90;99.90;;;;;;5046774;28;20674;-81
2023/04/23 07:08:13;;;;;;;38.45;33.42;;;15.80;99.90;;;;;;5046956;28;20093;-81
2023/04/23 07:10:39;;;;;;;32.47;29.25;;;15.80;99.90;;;;;;5049833;28;20071;-81
2023/04/23 07:13:04;;;;;;;32.03;28.80;;;15.80;99.90;;;;;;5048519;28;20039;-82
2023/04/23 07:15:32;;;;;;;32.80;29.60;;;15.70;99.90;;;;;;5045613;28;20056;-84
2023/04/23 07:17:57;;;;;;;33.35;29.20;;;15.40;99.90;;;;;;5044734;28;20068;-81
2023/04/23 07:20:23;;;;;;;31.38;28.23;;;15.50;99.90;;;;;;5040910;28;20080;-81
2023/04/23 07:22:48;;;;;;;30.08;26.92;;;15.60;99.90;;;;;;5045947;28;20041;-81
2023/04/23 07:25:14;;;;;;;30.95;27.98;;;15.50;99.90;;;;;;5045664;28;20048;-82
2023/04/23 07:27:40;;;;;;;29.98;26.98;;;15.50;99.90;;;;;;5049256;28;20142;-84
2023/04/23 07:30:06;;;;;;;29.45;26.48;;;15.40;99.90;;;;;;5049294;28;20101;-82
2023/04/23 07:32:32;;;;;;;30.33;27.30;;;15.40;99.90;;;;;;5044844;28;20048;-81
2023/04/23 07:34:58;;;;;;;27.95;25.25;;;15.50;99.90;;;;;;5063776;28;20391;-80
2023/04/23 07:37:23;;;;;;;27.63;24.92;;;15.50;99.90;;;;;;5048307;28;20390;-81
2023/04/23 07:39:49;;;;;;;26.77;24.02;;;15.40;99.90;;;;;;5041984;28;20044;-81
2023/04/23 07:42:14;;;;;;;26.95;24.15;;;15.50;99.90;;;;;;5044384;28;20159;-81
2023/04/23 07:44:40;;;;;;;27.17;24.58;;;15.60;99.90;;;;;;5042742;28;20037;-80
2023/04/23 07:47:06;;;;;;;26.98;24.23;;;15.70;99.90;;;;;;5042044;28;20041;-81
2023/04/23 07:49:32;;;;;;;27.23;24.45;;;15.50;99.90;;;;;;5046586;28;20037;-82
2023/04/23 07:51:57;;;;;;;24.17;21.77;;;15.40;99.90;;;;;;5048859;28;20387;-82
2023/04/23 07:54:23;;;;;;;25.25;22.75;;;15.60;99.90;;;;;;5044482;28;20033;-83
2023/04/23 07:56:48;;;;;;;26.58;23.80;;;15.50;99.90;;;;;;5048745;28;20044;-81
2023/04/23 07:59:14;;;;;;;23.77;21.45;;;15.40;99.90;;;;;;5046292;28;20051;-82
2023/04/23 08:01:40;;;;;;;24.08;21.67;;;15.50;99.90;;;;;;5049372;28;20040;-81
2023/04/23 08:04:06;;;;;;;25.75;23.20;;;15.80;99.90;;;;;;5044725;28;20073;-82
2023/04/23 08:06:34;;;;;;;25.23;22.55;;;16.00;99.90;;;;;;5045801;28;20075;-81
2023/04/23 08:09:00;;;;;;;24.13;21.88;;;16.20;99.90;;;;;;5045241;28;20057;-82
2023/04/23 08:11:28;;;;;;;23.60;21.25;;;16.50;99.90;;;;;;5047623;28;20037;-82
2023/04/23 08:13:54;;;;;;;24.77;22.30;;;16.50;99.90;;;;;;5046012;28;20045;-82
2023/04/23 08:16:19;;;;;;;23.13;20.85;;;16.60;99.90;;;;;;5043305;28;20044;-82
2023/04/23 08:18:45;;;;;;;25.33;22.70;;;16.80;99.90;;;;;;5048105;28;20301;-82
2023/04/23 08:21:11;;;;;;;21.40;19.40;;;16.80;99.90;;;;;;5049735;28;20472;-82
2023/04/23 08:23:37;;;;;;;20.98;18.88;;;17.10;99.90;;;;;;5050695;28;20041;-82
2023/04/23 08:26:02;;;;;;;20.75;18.55;;;17.20;99.90;;;;;;5052496;28;20380;-81
2023/04/23 08:28:29;;;;;;;19.45;17.40;;;17.20;99.90;;;;;;5048437;28;20139;-81
2023/04/23 08:30:55;;;;;;;19.98;18.17;;;17.20;99.90;;;;;;5054169;28;20040;-81
2023/04/23 08:33:20;;;;;;;19.70;17.70;;;17.30;99.90;;;;;;5053224;28;20045;-81
2023/04/23 08:35:46;;;;;;;20.02;17.98;;;17.40;99.90;;;;;;5050073;28;20083;-81
2023/04/23 08:38:11;;;;;;;20.10;17.90;;;17.60;99.90;;;;;;5046552;28;20045;-82
2023/04/23 08:40:39;;;;;;;17.42;15.82;;;17.40;99.90;;;;;;5048279;28;20047;-81
2023/04/23 08:43:35;;;;;;;17.98;16.27;;;17.30;99.90;;;;;;5042565;28;20116;-82
2023/04/23 08:46:05;;;;;;;15.48;13.98;;;17.10;99.90;;;;;;5040454;28;20070;-84
2023/04/23 08:48:34;;;;;;;16.35;14.05;;;17.00;99.90;;;;;;5041784;28;20079;-84
2023/04/23 08:51:01;;;;;;;15.93;14.43;;;17.30;99.90;;;;;;5028764;28;20029;-82
2023/04/23 08:53:27;;;;;;;15.32;13.50;;;17.50;99.90;;;;;;5042078;28;20128;-83
2023/04/23 08:55:55;;;;;;;14.85;13.52;;;17.50;99.90;;;;;;5038908;28;20131;-83
2023/04/23 08:58:21;;;;;;;15.85;13.52;;;17.80;99.90;;;;;;5040596;28;20103;-83
2023/04/23 09:00:48;;;;;;;14.55;13.15;;;17.80;99.90;;;;;;5041099;28;20597;-82
2023/04/23 09:03:15;;;;;;;13.18;11.82;;;17.80;99.90;;;;;;5040244;28;20072;-82
2023/04/23 09:05:41;;;;;;;14.07;12.52;;;17.80;99.90;;;;;;5043938;28;20044;-83
2023/04/23 09:08:07;;;;;;;13.63;11.98;;;17.80;99.90;;;;;;5044011;28;20036;-82
2023/04/23 09:10:37;;;;;;;12.77;11.52;;;17.90;99.90;;;;;;5045920;28;20257;-81
2023/04/23 09:13:03;;;;;;;13.10;11.77;;;18.00;99.90;;;;;;5042267;28;20084;-82
2023/04/23 09:15:28;;;;;;;11.68;10.48;;;18.00;99.90;;;;;;5044146;28;20837;-81
2023/04/23 09:17:54;;;;;;;15.48;10.23;;;17.70;99.90;;;;;;5040804;28;20041;-81
2023/04/23 09:20:19;;;;;;;12.65;11.32;;;17.70;99.90;;;;;;5044435;28;20434;-83
2023/04/23 09:22:47;;;;;;;20.63;9.85;;;17.50;99.90;;;;;;5034012;28;20493;-82
2023/04/23 09:25:18;;;;;;;11.75;9.90;;;17.20;99.90;;;;;;5040610;28;20041;-81
2023/04/23 09:27:45;;;;;;;11.57;8.82;;;17.00;99.90;;;;;;5043069;28;20064;-81
2023/04/23 09:30:11;;;;;;;12.32;8.32;;;16.90;99.90;;;;;;5044628;28;20037;-81
2023/04/23 09:32:40;;;;;;;9.85;7.40;;;16.80;99.90;;;;;;5044967;28;20071;-81
2023/04/23 09:35:07;;;;;;;11.35;7.80;;;16.80;99.90;;;;;;5046691;28;20049;-81
2023/04/23 09:37:33;;;;;;;11.45;7.43;;;16.70;99.90;;;;;;5044149;28;20037;-81
2023/04/23 09:40:04;;;;;;;10.23;7.00;;;16.90;99.90;;;;;;5044781;28;20436;-81
2023/04/23 09:42:31;;;;;;;8.98;6.82;;;16.90;99.90;;;;;;5045565;28;20510;-81
2023/04/23 09:45:10;;;;;;;9.80;6.97;;;17.10;99.90;;;;;;5045065;28;20070;-81
2023/04/23 09:47:50;;;;;;;9.73;6.78;;;17.50;99.90;;;;;;5042208;28;20032;-81
2023/04/23 09:50:16;;;;;;;10.80;6.55;;;17.90;99.90;;;;;;5047823;28;20131;-81
2023/04/23 09:52:42;;;;;;;8.27;6.10;;;18.40;99.90;;;;;;5040263;28;20096;-81
2023/04/23 09:55:07;;;;;;;10.77;7.50;;;18.20;99.90;;;;;;5038521;28;20369;-81
2023/04/23 09:57:40;;;;;;;12.23;7.40;;;18.00;99.90;;;;;;5044152;28;20594;-85
2023/04/23 10:00:21;;;;;;;10.23;6.97;;;17.80;99.90;;;;;;5045502;28;20043;-83
2023/04/23 10:02:50;;;;;;;10.75;6.78;;;17.80;99.90;;;;;;5049193;28;20109;-83
2023/04/23 10:05:17;;;;;;;9.32;4.88;;;18.00;99.90;;;;;;5046134;28;20450;-82
2023/04/23 10:07:45;;;;;;;9.15;5.15;;;18.20;99.90;;;;;;5057853;28;20040;-83
2023/04/23 10:10:11;;;;;;;8.68;4.85;;;18.20;99.90;;;;;;5046967;28;20048;-82
2023/04/23 10:12:37;;;;;;;9.15;4.90;;;18.00;99.90;;;;;;5055447;28;20097;-83
2023/04/23 10:15:06;;;;;;;7.75;5.25;;;17.90;99.90;;;;;;5042528;28;20080;-82
2023/04/23 10:17:34;;;;;;;14.23;4.72;;;17.80;99.90;;;;;;5052912;28;20045;-81
2023/04/23 10:20:00;;;;;;;9.95;5.80;;;17.80;99.90;;;;;;5050851;28;20117;-83
2023/04/23 10:22:29;;;;;;;9.90;5.00;;;17.90;99.90;;;;;;5053039;28;20761;-81
2023/04/23 10:24:59;;;;;;;9.48;5.25;;;18.10;99.90;;;;;;5079618;28;20080;-81
2023/04/23 10:27:29;;;;;;;9.95;4.32;;;18.10;99.90;;;;;;5046407;28;20032;-80
2023/04/23 10:29:57;;;;;;;8.20;4.30;;;18.10;99.90;;;;;;5048802;28;20050;-81
2023/04/23 10:32:23;;;;;;;11.55;5.18;;;18.10;99.90;;;;;;5048284;28;20040;-82
2023/04/23 10:34:49;;;;;;;6.30;4.53;;;18.20;99.90;;;;;;5045269;28;20513;-82
2023/04/23 10:37:18;;;;;;;11.15;4.38;;;18.10;99.90;;;;;;5041849;28;20751;-81
2023/04/23 10:39:46;;;;;;;7.55;4.70;;;18.00;99.90;;;;;;5040645;28;20124;-82
2023/04/23 10:42:12;;;;;;;8.63;3.72;;;18.00;99.90;;;;;;5048978;28;20044;-82
2023/04/23 10:44:40;;;;;;;6.07;3.38;;;18.30;99.90;;;;;;5041205;28;20195;-81
2023/04/23 10:47:10;;;;;;;8.68;3.20;;;18.70;99.90;;;;;;5045692;28;20044;-82
2023/04/23 10:49:37;;;;;;;8.75;3.30;;;18.90;99.90;;;;;;5045610;28;20038;-82
2023/04/23 10:52:14;;;;;;;8.38;4.13;;;19.20;99.90;;;;;;5042226;28;20052;-82
2023/04/23 10:54:41;;;;;;;9.07;3.05;;;19.30;99.90;;;;;;5039501;28;20057;-85
2023/04/23 10:57:11;;;;;;;12.00;3.30;;;19.10;99.90;;;;;;5041589;28;20075;-84
2023/04/23 10:59:52;;;;;;;5.75;2.65;;;19.10;99.90;;;;;;5020206;28;20496;-86
2023/04/23 11:02:18;;;;;;;7.05;3.47;;;19.10;99.90;;;;;;5022593;28;20064;-82
2023/04/23 11:04:45;;;;;;;7.63;2.38;;;19.20;99.90;;;;;;5042580;28;20483;-82
2023/04/23 11:07:11;;;;;;;7.15;3.03;;;19.40;99.90;;;;;;5044536;28;20037;-84
2023/04/23 11:09:40;;;;;;;6.63;2.22;;;19.30;99.90;;;;;;5043235;28;20044;-85
2023/04/23 11:12:11;;;;;;;8.07;2.08;;;19.30;99.90;;;;;;5043740;28;20491;-83
2023/04/23 11:14:48;;;;;;;7.18;1.98;;;19.30;99.90;;;;;;5044710;28;20036;-84
2023/04/23 11:17:16;;;;;;;4.60;2.13;;;19.30;99.90;;;;;;5040597;28;20042;-83
2023/04/23 11:20:09;;;;;;;6.97;2.17;;;19.10;99.90;;;;;;5055796;28;20595;-84
2023/04/23 11:22:46;;;;;;;6.55;1.90;;;19.10;99.90;;;;;;5042024;28;20517;-83
2023/04/23 11:25:18;;;;;;;3.88;1.70;;;19.10;99.90;;;;;;5040200;28;20041;-83
2023/04/23 11:27:45;;;;;;;4.38;1.55;;;19.20;99.90;;;;;;5036257;28;20410;-84
2023/04/23 11:30:13;;;;;;;5.30;1.35;;;19.20;99.90;;;;;;5045127;28;20495;-84
2023/04/23 11:32:40;;;;;;;5.15;1.83;;;19.10;99.90;;;;;;5047773;28;20123;-83
2023/04/23 11:35:08;;;;;;;4.07;2.00;;;19.10;99.90;;;;;;5027717;28;20037;-83
2023/04/23 11:37:39;;;;;;;4.25;1.67;;;19.20;99.90;;;;;;5045342;28;20049;-83
2023/04/23 11:40:10;;;;;;;10.82;2.38;;;19.20;99.90;;;;;;5046337;28;20045;-83
2023/04/23 11:42:46;;;;;;;4.50;1.70;;;19.10;99.90;;;;;;5042072;28;20073;-83
2023/04/23 11:45:19;;;;;;;5.95;1.95;;;19.10;99.90;;;;;;5050354;28;20500;-82
2023/04/23 11:47:45;;;;;;;4.68;2.00;;;19.30;99.90;;;;;;5043286;28;20037;-83
2023/04/23 11:50:22;;;;;;;5.00;1.73;;;19.30;99.90;;;;;;5048028;28;20041;-83
2023/04/23 11:52:48;;;;;;;4.97;1.70;;;19.30;99.90;;;;;;5043762;28;20060;-83
2023/04/23 11:55:14;;;;;;;4.93;1.50;;;19.40;99.90;;;;;;5042811;28;20063;-83
2023/04/23 11:57:42;;;;;;;9.27;2.00;;;19.50;99.90;;;;;;5045160;28;20760;-83
2023/04/23 12:00:28;;;;;;;5.50;1.95;;;19.50;99.90;;;;;;5047913;28;20399;-83
2023/04/23 12:02:58;;;;;;;;;;;19.60;99.90;;;;;;5048670;28;20690;-83
2023/04/23 12:05:36;;;;;;;5.43;1.67;;;19.40;99.90;;;;;;5045569;28;19947;-83
2023/04/23 12:08:13;;;;;;;4.05;1.48;;;19.20;99.90;;;;;;5051371;28;20041;-82
2023/04/23 12:10:51;;;;;;;4.35;1.90;;;18.90;99.90;;;;;;5054310;28;20041;-82
2023/04/23 12:13:22;;;;;;;6.85;2.03;;;18.90;99.90;;;;;;5050511;28;20029;-83
2023/04/23 12:15:50;;;;;;;4.70;1.33;;;18.90;99.90;;;;;;5045293;28;20053;-82
2023/04/23 12:18:18;;;;;;;3.67;1.38;;;18.90;99.90;;;;;;5042754;28;20059;-81
2023/04/23 12:20:44;;;;;;;6.35;1.90;;;18.80;99.90;;;;;;5044109;28;20525;-81
2023/04/23 12:23:10;;;;;;;3.83;1.90;;;18.80;99.90;;;;;;5052211;28;20041;-81
2023/04/23 12:25:36;;;;;;;5.85;1.42;;;18.90;99.90;;;;;;5045340;28;20033;-81
2023/04/23 12:28:03;;;;;;;6.30;1.80;;;18.80;99.90;;;;;;5043285;28;20056;-83
2023/04/23 12:30:34;;;;;;;5.05;1.73;;;18.70;99.90;;;;;;5046409;28;20067;-83
2023/04/23 12:33:00;;;;;;;5.75;1.40;;;18.60;99.90;;;;;;5079867;28;20055;-83